Time;durP1;ratioP1;P1;durP2;ratioP2;P2;SDS_P1;SDS_P2;PMS_P1;PMS_P2;Temp;Humidity;BMP_temperature;BMP_pressure;BME280_temperature;BME280_humidity;BME280_pressure;Samples;Min_cycle;Max_cycle;Signal;HPM_P1;HPM_P2
2022/01/09 00:00:26;;;;;;;1999.90;999.90;;;3.50;99.90;;;;;;5096620;28;20040;-63
2022/01/09 00:02:53;;;;;;;1999.90;999.90;;;3.40;99.90;;;;;;5095776;28;20032;-63
2022/01/09 00:05:19;;;;;;;1999.90;999.90;;;3.50;99.90;;;;;;5096809;28;20048;-63
2022/01/09 00:07:46;;;;;;;1999.90;999.90;;;3.50;99.90;;;;;;5095881;28;20132;-63
2022/01/09 00:10:12;;;;;;;1999.90;999.90;;;3.50;99.90;;;;;;5095823;28;20048;-62
2022/01/09 00:12:38;;;;;;;1999.90;999.90;;;3.50;99.90;;;;;;5096410;28;20063;-63
2022/01/09 00:15:05;;;;;;;1999.90;999.90;;;3.50;99.90;;;;;;5095718;28;20090;-63
2022/01/09 00:17:31;;;;;;;1999.90;999.90;;;3.60;99.90;;;;;;5095484;28;20062;-63
2022/01/09 00:19:57;;;;;;;1999.90;999.90;;;3.50;99.90;;;;;;5096680;28;20051;-62
2022/01/09 00:22:34;;;;;;;1999.90;999.90;;;3.60;99.90;;;;;;5095815;28;20443;-62
2022/01/09 00:25:00;;;;;;;1999.90;999.90;;;3.60;99.90;;;;;;5096106;28;20090;-62
2022/01/09 00:27:25;;;;;;;1999.90;999.90;;;3.60;99.90;;;;;;5095777;28;20087;-63
2022/01/09 00:29:51;;;;;;;1999.90;999.90;;;3.60;99.90;;;;;;5095159;28;20044;-63
2022/01/09 00:32:17;;;;;;;1999.90;999.90;;;3.60;99.90;;;;;;5095994;28;20059;-63
2022/01/09 00:34:43;;;;;;;1999.90;999.90;;;3.60;99.90;;;;;;5096222;28;20115;-63
2022/01/09 00:37:08;;;;;;;1999.90;999.90;;;3.60;99.90;;;;;;5095104;28;20126;-63
2022/01/09 00:39:34;;;;;;;1999.90;999.90;;;3.60;99.90;;;;;;5095785;28;20044;-62
2022/01/09 00:42:00;;;;;;;1999.90;999.90;;;3.60;99.90;;;;;;5096159;28;20075;-63
2022/01/09 00:44:25;;;;;;;1999.90;999.90;;;3.60;99.90;;;;;;5094842;28;20538;-62
2022/01/09 00:46:51;;;;;;;1999.90;999.90;;;3.60;99.90;;;;;;5095701;28;20039;-62
2022/01/09 00:49:17;;;;;;;1999.90;999.90;;;3.60;99.90;;;;;;5095845;28;20063;-62
2022/01/09 00:51:43;;;;;;;1999.90;999.90;;;3.60;99.90;;;;;;5094932;28;20048;-63
2022/01/09 00:54:08;;;;;;;1999.90;999.90;;;3.60;99.90;;;;;;5095357;28;20498;-63
2022/01/09 00:56:34;;;;;;;1999.90;999.90;;;3.60;99.90;;;;;;5095759;28;20052;-62
2022/01/09 00:59:00;;;;;;;1999.90;999.90;;;3.50;99.90;;;;;;5093869;28;20078;-63
2022/01/09 01:01:26;;;;;;;1999.90;999.90;;;3.50;99.90;;;;;;5094964;28;20047;-63
2022/01/09 01:03:51;;;;;;;1999.90;999.90;;;3.50;99.90;;;;;;5095303;28;20048;-62
2022/01/09 01:06:17;;;;;;;1999.90;999.90;;;3.50;99.90;;;;;;5094815;28;20105;-63
2022/01/09 01:08:43;;;;;;;1999.90;999.90;;;3.50;99.90;;;;;;5095108;28;20040;-62
2022/01/09 01:11:09;;;;;;;1999.90;999.90;;;3.50;99.90;;;;;;5094223;28;20429;-63
2022/01/09 01:13:35;;;;;;;1999.90;999.90;;;3.50;99.90;;;;;;5095126;28;20044;-63
2022/01/09 01:16:01;;;;;;;1999.90;999.90;;;3.50;99.90;;;;;;5095182;28;20098;-63
2022/01/09 01:18:27;;;;;;;1999.90;999.90;;;3.40;99.90;;;;;;5094770;28;20245;-63
2022/01/09 01:20:52;;;;;;;1999.90;999.90;;;3.40;99.90;;;;;;5094817;28;20044;-63
2022/01/09 01:23:18;;;;;;;1999.90;999.90;;;3.40;99.90;;;;;;5095127;28;20390;-63
2022/01/09 01:25:50;;;;;;;1999.90;999.90;;;3.40;99.90;;;;;;5094531;28;20127;-63
2022/01/09 01:28:16;;;;;;;1999.90;999.90;;;3.40;99.90;;;;;;5076964;28;20048;-63
2022/01/09 01:30:42;;;;;;;1999.90;999.90;;;3.40;99.90;;;;;;5094580;28;20062;-63
2022/01/09 01:33:08;;;;;;;1999.90;999.90;;;3.40;99.90;;;;;;5094338;28;20454;-63
2022/01/09 01:35:34;;;;;;;1999.90;999.90;;;3.40;99.90;;;;;;5095128;28;20060;-63
2022/01/09 01:38:00;;;;;;;1999.90;999.90;;;3.50;99.90;;;;;;5094432;28;20044;-63
2022/01/09 01:40:26;;;;;;;1999.90;999.90;;;3.50;99.90;;;;;;5094025;28;20115;-63
2022/01/09 01:42:52;;;;;;;1999.90;999.90;;;3.50;99.90;;;;;;5094965;28;20449;-63
2022/01/09 01:45:18;;;;;;;1999.90;999.90;;;3.50;99.90;;;;;;5094579;28;20076;-63
2022/01/09 01:47:44;;;;;;;1999.90;999.90;;;3.40;99.90;;;;;;5093665;28;20059;-63
2022/01/09 01:50:12;;;;;;;1999.90;999.90;;;3.50;99.90;;;;;;5094728;28;20052;-63
2022/01/09 01:52:42;;;;;;;1999.90;999.90;;;3.50;99.90;;;;;;5094433;28;20105;-63
2022/01/09 01:55:10;;;;;;;1999.90;999.90;;;3.50;99.90;;;;;;5093176;28;20051;-63
2022/01/09 01:57:38;;;;;;;1999.90;999.90;;;3.50;99.90;;;;;;5094714;28;20470;-63
2022/01/09 02:00:06;;;;;;;1999.90;999.90;;;3.50;99.90;;;;;;5094256;28;20063;-63
2022/01/09 02:02:31;;;;;;;1999.90;999.90;;;3.50;99.90;;;;;;5093705;28;20051;-63
2022/01/09 02:04:57;;;;;;;1999.90;999.90;;;3.50;99.90;;;;;;5093966;28;20032;-62
2022/01/09 02:07:23;;;;;;;1999.90;999.90;;;3.50;99.90;;;;;;5093172;28;20494;-63
2022/01/09 02:09:49;;;;;;;1999.90;999.90;;;3.50;99.90;;;;;;5094336;28;20044;-63
2022/01/09 02:12:16;;;;;;;1999.90;999.90;;;3.50;99.90;;;;;;5093740;28;20088;-63
2022/01/09 02:14:46;;;;;;;1999.90;999.90;;;3.50;99.90;;;;;;5092915;28;20048;-63
2022/01/09 02:17:18;;;;;;;1999.90;999.90;;;3.50;99.90;;;;;;5094372;28;20048;-63
2022/01/09 02:19:55;;;;;;;1999.90;999.90;;;3.50;99.90;;;;;;5094407;28;20044;-64
2022/01/09 02:22:23;;;;;;;1999.90;999.90;;;3.50;99.90;;;;;;5092513;28;20080;-63
2022/01/09 02:24:50;;;;;;;1999.90;999.90;;;3.50;99.90;;;;;;5094220;28;20052;-63
2022/01/09 02:27:16;;;;;;;1999.90;999.90;;;3.50;99.90;;;;;;5094037;28;20040;-63
2022/01/09 02:29:46;;;;;;;1999.90;999.90;;;3.50;99.90;;;;;;5092982;28;20131;-64
2022/01/09 02:32:12;;;;;;;1999.90;999.90;;;3.40;99.90;;;;;;5102783;28;20169;-63
2022/01/09 02:34:38;;;;;;;1999.90;999.90;;;3.40;99.90;;;;;;5104269;28;20072;-63
2022/01/09 02:37:04;;;;;;;1999.90;999.90;;;3.40;99.90;;;;;;5103214;28;20114;-63
2022/01/09 02:39:30;;;;;;;1999.90;999.90;;;3.40;99.90;;;;;;5101907;28;20101;-63
2022/01/09 02:41:56;;;;;;;1999.90;999.90;;;3.40;99.90;;;;;;5103963;28;20043;-63
2022/01/09 02:44:21;;;;;;;1999.90;999.90;;;3.40;99.90;;;;;;5111149;28;20422;-64
2022/01/09 02:49:14;;;;;;;1999.90;999.90;;;3.40;99.90;;;;;;5093172;28;20077;-63
2022/01/09 02:51:40;;;;;;;1999.90;999.90;;;3.40;99.90;;;;;;5092090;28;20441;-63
2022/01/09 02:56:51;;;;;;;1999.90;999.90;;;3.50;99.90;;;;;;5092507;28;20102;-64
2022/01/09 02:59:17;;;;;;;1999.90;999.90;;;3.50;99.90;;;;;;5093078;28;20044;-63
2022/01/09 03:01:42;;;;;;;1999.90;999.90;;;3.50;99.90;;;;;;5093549;28;20047;-63
2022/01/09 03:04:08;;;;;;;1999.90;999.90;;;3.60;99.90;;;;;;5092296;28;20335;-63
2022/01/09 03:06:34;;;;;;;1999.90;999.90;;;3.60;99.90;;;;;;5086280;28;20052;-64
2022/01/09 03:09:01;;;;;;;1999.90;999.90;;;3.60;99.90;;;;;;5093272;28;20448;-64
2022/01/09 03:11:28;;;;;;;1999.90;999.90;;;3.70;99.90;;;;;;5092473;28;20051;-63
2022/01/09 03:13:54;;;;;;;1999.90;999.90;;;3.70;99.90;;;;;;5092702;28;20501;-63
2022/01/09 03:16:19;;;;;;;1999.90;999.90;;;3.70;99.90;;;;;;5093014;28;20062;-63
2022/01/09 03:18:45;;;;;;;1999.90;999.90;;;3.80;99.90;;;;;;5092408;28;20044;-64
2022/01/09 03:21:11;;;;;;;1999.90;999.90;;;3.80;99.90;;;;;;5093040;28;20496;-64
2022/01/09 03:23:36;;;;;;;1999.90;999.90;;;3.80;99.90;;;;;;5091958;28;20044;-64
2022/01/09 03:26:02;;;;;;;1999.90;999.90;;;3.80;99.90;;;;;;5092329;28;20123;-64
2022/01/09 03:28:28;;;;;;;1999.90;999.90;;;3.70;99.90;;;;;;5093305;28;20489;-64
2022/01/09 03:30:54;;;;;;;1999.90;999.90;;;3.70;99.90;;;;;;5092434;28;20611;-64
2022/01/09 03:33:20;;;;;;;1999.90;999.90;;;3.70;99.90;;;;;;5084846;28;20050;-64
2022/01/09 03:35:46;;;;;;;1999.90;999.90;;;3.70;99.90;;;;;;5092921;28;20111;-64
2022/01/09 03:38:12;;;;;;;1999.90;999.90;;;3.70;99.90;;;;;;5092742;28;20036;-64
2022/01/09 03:40:38;;;;;;;1999.90;999.90;;;3.70;99.90;;;;;;5092233;28;20058;-64
2022/01/09 03:43:04;;;;;;;1999.90;999.90;;;3.70;99.90;;;;;;5092740;28;20044;-64
2022/01/09 03:45:30;;;;;;;1999.90;999.90;;;3.70;99.90;;;;;;5092632;28;20461;-64
2022/01/09 03:47:56;;;;;;;1999.90;999.90;;;3.70;99.90;;;;;;5091755;28;20131;-64
2022/01/09 03:50:23;;;;;;;1999.90;999.90;;;3.70;99.90;;;;;;5092175;28;20036;-64
2022/01/09 03:52:49;;;;;;;1999.90;999.90;;;3.70;99.90;;;;;;5091456;28;20553;-64
2022/01/09 03:55:19;;;;;;;1999.90;999.90;;;3.90;99.90;;;;;;5092803;28;20036;-63
2022/01/09 03:57:45;;;;;;;1999.90;999.90;;;4.00;99.90;;;;;;5092762;28;20096;-63
2022/01/09 04:00:14;;;;;;;1999.90;999.90;;;4.10;99.90;;;;;;5091154;28;20066;-63
2022/01/09 04:02:42;;;;;;;1999.90;999.90;;;4.20;99.90;;;;;;5092778;28;20490;-63
2022/01/09 04:05:08;;;;;;;1999.90;999.90;;;4.20;99.90;;;;;;5092663;28;20080;-63
2022/01/09 04:07:35;;;;;;;1999.90;999.90;;;4.20;99.90;;;;;;5091154;28;20182;-63
2022/01/09 04:10:02;;;;;;;1999.90;999.90;;;4.30;99.90;;;;;;5092434;28;20181;-63
2022/01/09 04:12:34;;;;;;;1999.90;999.90;;;4.40;99.90;;;;;;5092344;28;20502;-63
2022/01/09 04:15:03;;;;;;;1999.90;999.90;;;4.50;99.90;;;;;;5091211;28;20402;-63
2022/01/09 04:17:41;;;;;;;1999.90;999.90;;;4.50;99.90;;;;;;5092350;28;20036;-63
2022/01/09 04:20:08;;;;;;;1999.90;999.90;;;4.60;99.90;;;;;;5092684;28;20136;-62
2022/01/09 04:22:35;;;;;;;1999.90;999.90;;;4.70;99.90;;;;;;5091574;28;20405;-62
2022/01/09 04:25:01;;;;;;;1999.90;999.90;;;4.70;99.90;;;;;;5091137;28;20106;-63
2022/01/09 04:27:27;;;;;;;1999.90;999.90;;;4.80;99.90;;;;;;5092039;28;20048;-62
2022/01/09 04:29:53;;;;;;;1999.90;999.90;;;4.80;99.90;;;;;;5091230;28;20047;-62
2022/01/09 04:32:18;;;;;;;1999.90;999.90;;;4.80;99.90;;;;;;5092550;28;20447;-62
2022/01/09 04:34:44;;;;;;;1999.90;999.90;;;4.80;99.90;;;;;;5087653;28;20048;-62
2022/01/09 04:37:10;;;;;;;1999.90;999.90;;;4.90;99.90;;;;;;5095272;28;20413;-62
2022/01/09 04:39:35;;;;;;;1999.90;999.90;;;4.90;99.90;;;;;;5096254;28;20090;-62
2022/01/09 04:42:01;;;;;;;1999.90;999.90;;;4.80;99.90;;;;;;5095164;28;20044;-62
2022/01/09 04:44:27;;;;;;;1999.90;999.90;;;4.80;99.90;;;;;;5095484;28;20059;-62
2022/01/09 04:46:58;;;;;;;1999.90;999.90;;;4.90;99.90;;;;;;5077586;28;20052;-62
2022/01/09 04:49:28;;;;;;;1999.90;999.90;;;4.90;99.90;;;;;;5095039;28;20056;-62
2022/01/09 04:51:55;;;;;;;1999.90;999.90;;;4.80;99.90;;;;;;5095333;28;20047;-62
2022/01/09 04:54:20;;;;;;;1999.90;999.90;;;4.90;99.90;;;;;;5095706;28;20040;-62
2022/01/09 04:56:46;;;;;;;1999.90;999.90;;;4.90;99.90;;;;;;5094726;28;20101;-62
2022/01/09 04:59:12;;;;;;;1999.90;999.90;;;4.90;99.90;;;;;;5095511;28;20414;-62
2022/01/09 05:01:38;;;;;;;1999.90;999.90;;;5.00;99.90;;;;;;5095598;28;20047;-62
2022/01/09 05:04:03;;;;;;;1999.90;999.90;;;4.90;99.90;;;;;;5095070;28;20044;-62
2022/01/09 05:06:29;;;;;;;1999.90;999.90;;;5.00;99.90;;;;;;5095216;28;20044;-62
2022/01/09 05:08:55;;;;;;;1999.90;999.90;;;5.00;99.90;;;;;;5095627;28;20075;-62
2022/01/09 05:11:21;;;;;;;1999.90;999.90;;;5.10;99.90;;;;;;5094536;28;20044;-62
2022/01/09 05:13:46;;;;;;;1999.90;999.90;;;5.10;99.90;;;;;;5094881;28;20106;-62
2022/01/09 05:16:12;;;;;;;1999.90;999.90;;;5.10;99.90;;;;;;5095541;28;20056;-62
2022/01/09 05:18:53;;;;;;;1999.90;999.90;;;5.20;99.90;;;;;;5094061;28;20052;-62
2022/01/09 05:21:18;;;;;;;1999.90;999.90;;;5.30;99.90;;;;;;5094889;28;20040;-61
2022/01/09 05:23:45;;;;;;;1999.90;999.90;;;5.40;99.90;;;;;;5094982;28;20121;-61
2022/01/09 05:26:10;;;;;;;1999.90;999.90;;;5.40;99.90;;;;;;5094472;28;20042;-61
2022/01/09 05:28:36;;;;;;;1999.90;999.90;;;5.50;99.90;;;;;;5099988;28;20069;-62
2022/01/09 05:31:02;;;;;;;1999.90;999.90;;;5.50;99.90;;;;;;5104805;28;20543;-62
2022/01/09 05:33:28;;;;;;;1999.90;999.90;;;5.60;99.90;;;;;;5103089;28;20482;-61
2022/01/09 05:35:53;;;;;;;1999.90;999.90;;;5.60;99.90;;;;;;5094695;28;20056;-62
2022/01/09 05:38:20;;;;;;;1999.90;999.90;;;5.70;99.90;;;;;;5093850;28;20398;-61
2022/01/09 05:40:46;;;;;;;1999.90;999.90;;;5.70;99.90;;;;;;5095057;28;20056;-62
2022/01/09 05:43:13;;;;;;;1999.90;999.90;;;5.80;99.90;;;;;;5094736;28;20040;-62
2022/01/09 05:45:39;;;;;;;1999.90;999.90;;;5.80;99.90;;;;;;5092947;28;20059;-62
2022/01/09 05:48:06;;;;;;;1999.90;999.90;;;5.80;99.90;;;;;;5094738;28;20048;-62
2022/01/09 05:50:32;;;;;;;1999.90;999.90;;;5.80;99.90;;;;;;5094244;28;20036;-62
2022/01/09 05:52:58;;;;;;;1999.90;999.90;;;5.80;99.90;;;;;;5093634;28;20059;-62
2022/01/09 05:55:24;;;;;;;1999.90;999.90;;;5.70;99.90;;;;;;5094390;28;20044;-62
2022/01/09 05:57:50;;;;;;;1999.90;999.90;;;5.70;99.90;;;;;;5094391;28;20051;-62
2022/01/09 06:00:16;;;;;;;1999.90;999.90;;;5.70;99.90;;;;;;5093679;28;20044;-62
2022/01/09 06:02:45;;;;;;;1999.90;999.90;;;5.70;99.90;;;;;;5093976;28;20050;-62
2022/01/09 06:05:10;;;;;;;1999.90;999.90;;;5.70;99.90;;;;;;5093928;28;20397;-62
2022/01/09 06:07:43;;;;;;;1999.90;999.90;;;5.70;99.90;;;;;;5093647;28;20052;-62
2022/01/09 06:10:09;;;;;;;1999.90;999.90;;;5.70;99.90;;;;;;5094259;28;20040;-63
2022/01/09 06:12:35;;;;;;;1999.90;999.90;;;5.70;99.90;;;;;;5093609;28;20044;-62
2022/01/09 06:15:01;;;;;;;1999.90;999.90;;;5.70;99.90;;;;;;5093624;28;20418;-62
2022/01/09 06:17:27;;;;;;;1999.90;999.90;;;5.70;99.90;;;;;;5094159;28;20040;-63
2022/01/09 06:19:53;;;;;;;1999.90;999.90;;;5.70;99.90;;;;;;5093540;28;20393;-62
2022/01/09 06:22:19;;;;;;;1999.90;999.90;;;5.70;99.90;;;;;;5093059;28;20043;-62
2022/01/09 06:24:46;;;;;;;1999.90;999.90;;;5.70;99.90;;;;;;5094153;28;20056;-62
2022/01/09 06:27:13;;;;;;;1999.90;999.90;;;5.60;99.90;;;;;;5093701;28;20044;-63
2022/01/09 06:29:39;;;;;;;1999.90;999.90;;;5.60;99.90;;;;;;5092901;28;20052;-62
2022/01/09 06:32:06;;;;;;;1999.90;999.90;;;5.60;99.90;;;;;;5093917;28;20150;-62
2022/01/09 06:34:32;;;;;;;1999.90;999.90;;;5.60;99.90;;;;;;5092812;28;20044;-63
2022/01/09 06:36:57;;;;;;;1999.90;999.90;;;5.60;99.90;;;;;;5093936;28;20478;-62
2022/01/09 06:39:23;;;;;;;1999.90;999.90;;;5.70;99.90;;;;;;5093650;28;20559;-62
2022/01/09 06:41:49;;;;;;;1999.90;999.90;;;5.70;99.90;;;;;;5092832;28;20056;-62
2022/01/09 06:44:15;;;;;;;1999.90;999.90;;;5.70;99.90;;;;;;5093742;28;20048;-62
2022/01/09 06:46:41;;;;;;;1999.90;999.90;;;5.70;99.90;;;;;;5075352;28;20512;-62
2022/01/09 06:49:07;;;;;;;1999.90;999.90;;;5.70;99.90;;;;;;5091974;28;20565;-62
2022/01/09 06:51:32;;;;;;;1999.90;999.90;;;5.70;99.90;;;;;;5093512;28;20115;-62
2022/01/09 06:53:58;;;;;;;1999.90;999.90;;;5.70;99.90;;;;;;5093640;28;20131;-62
2022/01/09 06:56:24;;;;;;;1999.90;999.90;;;5.70;99.90;;;;;;5092144;28;20044;-62
2022/01/09 06:58:50;;;;;;;1999.90;999.90;;;5.60;99.90;;;;;;5092198;28;20139;-63
2022/01/09 07:01:16;;;;;;;1999.90;999.90;;;5.60;99.90;;;;;;5093559;28;20043;-62
2022/01/09 07:03:41;;;;;;;1999.90;999.90;;;5.60;99.90;;;;;;5077166;28;20048;-62
2022/01/09 07:06:07;;;;;;;1999.90;999.90;;;5.60;99.90;;;;;;5093154;28;20048;-62
2022/01/09 07:08:34;;;;;;;1999.90;999.90;;;5.60;99.90;;;;;;5093355;28;20044;-62
2022/01/09 07:11:01;;;;;;;1999.90;999.90;;;5.50;99.90;;;;;;5092165;28;20112;-62
2022/01/09 07:13:27;;;;;;;1999.90;999.90;;;5.60;99.90;;;;;;5092645;28;20070;-62
2022/01/09 07:15:53;;;;;;;1999.90;999.90;;;5.50;99.90;;;;;;5093444;28;20477;-62
2022/01/09 07:18:18;;;;;;;1999.90;999.90;;;5.50;99.90;;;;;;5092088;28;20040;-62
2022/01/09 07:20:44;;;;;;;1999.90;999.90;;;5.50;99.90;;;;;;5093324;28;20055;-62
2022/01/09 07:23:10;;;;;;;1999.90;999.90;;;5.40;99.90;;;;;;5093027;28;20123;-63
2022/01/09 07:25:36;;;;;;;1999.90;999.90;;;5.50;99.90;;;;;;5092131;28;20055;-62
2022/01/09 07:28:02;;;;;;;1999.90;999.90;;;5.50;99.90;;;;;;5093294;28;20050;-62
2022/01/09 07:30:29;;;;;;;1999.90;999.90;;;5.50;99.90;;;;;;5093098;28;20044;-62
2022/01/09 07:32:55;;;;;;;1999.90;999.90;;;5.50;99.90;;;;;;5091507;28;20052;-62
2022/01/09 07:35:22;;;;;;;1999.90;999.90;;;5.40;99.90;;;;;;5092996;28;20036;-62
2022/01/09 07:37:47;;;;;;;1999.90;999.90;;;5.40;99.90;;;;;;5092985;28;20051;-62
2022/01/09 07:40:13;;;;;;;1999.90;999.90;;;5.40;99.90;;;;;;5091657;28;20031;-62
2022/01/09 07:42:39;;;;;;;1999.90;999.90;;;5.40;99.90;;;;;;5092826;28;20481;-62
2022/01/09 07:45:07;;;;;;;1999.90;999.90;;;5.30;99.90;;;;;;5092003;28;20072;-62
2022/01/09 07:47:35;;;;;;;1999.90;999.90;;;5.40;99.90;;;;;;5092711;28;20048;-62
2022/01/09 07:50:00;;;;;;;1999.90;999.90;;;5.30;99.90;;;;;;5092326;28;20044;-63
2022/01/09 07:52:26;;;;;;;1999.90;999.90;;;5.30;99.90;;;;;;5092091;28;20056;-62
2022/01/09 07:54:52;;;;;;;1999.90;999.90;;;5.30;99.90;;;;;;5092721;28;20535;-62
2022/01/09 07:57:18;;;;;;;1999.90;999.90;;;5.30;99.90;;;;;;5092599;28;20047;-62
2022/01/09 07:59:44;;;;;;;1999.90;999.90;;;5.30;99.90;;;;;;5100777;28;20059;-62
2022/01/09 08:02:10;;;;;;;1999.90;999.90;;;5.30;99.90;;;;;;5102012;28;20051;-62
2022/01/09 08:04:36;;;;;;;1999.90;999.90;;;5.30;99.90;;;;;;5106793;28;20043;-62
2022/01/09 08:07:02;;;;;;;1999.90;999.90;;;5.20;99.90;;;;;;5106218;28;20122;-62
2022/01/09 08:09:28;;;;;;;1999.90;999.90;;;5.20;99.90;;;;;;5104360;28;20039;-62
2022/01/09 08:11:55;;;;;;;1999.90;999.90;;;5.20;99.90;;;;;;5116721;28;20063;-62
2022/01/09 08:14:21;;;;;;;1999.90;999.90;;;5.20;99.90;;;;;;5116563;28;20040;-62
2022/01/09 08:16:46;;;;;;;1999.90;999.90;;;5.20;99.90;;;;;;5103316;28;20116;-63
2022/01/09 08:19:12;;;;;;;1999.90;999.90;;;5.20;99.90;;;;;;5096410;28;20087;-63
2022/01/09 08:21:38;;;;;;;1999.90;999.90;;;5.10;99.90;;;;;;5095791;28;20044;-63
2022/01/09 08:24:04;;;;;;;1999.90;999.90;;;5.10;99.90;;;;;;5096195;28;20044;-63
2022/01/09 08:26:30;;;;;;;1999.90;999.90;;;5.10;99.90;;;;;;5075540;28;20056;-63
2022/01/09 08:28:55;;;;;;;1999.90;999.90;;;5.30;99.90;;;;;;5074930;28;20048;-63
2022/01/09 08:31:21;;;;;;;1999.90;999.90;;;5.20;99.90;;;;;;5076017;28;20048;-63
2022/01/09 08:33:47;;;;;;;1999.90;999.90;;;5.20;99.90;;;;;;5082904;28;20040;-63
2022/01/09 08:36:14;;;;;;;1999.90;999.90;;;5.20;99.90;;;;;;5095348;28;20088;-63
2022/01/09 08:38:42;;;;;;;1999.90;999.90;;;5.20;99.90;;;;;;5105090;28;20036;-63
2022/01/09 08:41:08;;;;;;;1999.90;999.90;;;5.20;99.90;;;;;;5086704;28;20081;-63
2022/01/09 08:43:36;;;;;;;1999.90;999.90;;;5.20;99.90;;;;;;5103873;28;20051;-63
2022/01/09 08:46:02;;;;;;;1999.90;999.90;;;5.20;99.90;;;;;;5078325;28;20461;-63
2022/01/09 08:48:28;;;;;;;1999.90;999.90;;;5.20;99.90;;;;;;5100382;28;20058;-63
2022/01/09 08:50:53;;;;;;;1999.90;999.90;;;5.20;99.90;;;;;;5103668;28;20044;-63
2022/01/09 08:53:20;;;;;;;1999.90;999.90;;;5.20;99.90;;;;;;5104857;28;20048;-63
2022/01/09 08:55:45;;;;;;;1999.90;999.90;;;5.20;99.90;;;;;;5103982;28;20044;-63
2022/01/09 08:58:11;;;;;;;1999.90;999.90;;;5.20;99.90;;;;;;5096416;28;20049;-63
2022/01/09 09:00:37;;;;;;;1999.90;999.90;;;5.20;99.90;;;;;;5095518;28;20485;-63
2022/01/09 09:03:04;;;;;;;1999.90;999.90;;;5.20;99.90;;;;;;5094622;28;20071;-63
2022/01/09 09:05:30;;;;;;;1999.90;999.90;;;5.20;99.90;;;;;;5083188;28;20087;-63
2022/01/09 09:07:58;;;;;;;1999.90;999.90;;;5.20;99.90;;;;;;5102517;28;20100;-63
2022/01/09 09:10:24;;;;;;;1999.90;999.90;;;5.30;99.90;;;;;;5107869;28;20170;-64
2022/01/09 09:12:50;;;;;;;1999.90;999.90;;;5.30;99.90;;;;;;5112807;28;20063;-63
2022/01/09 09:15:20;;;;;;;1999.90;999.90;;;5.20;99.90;;;;;;5095463;28;20096;-65
2022/01/09 09:17:46;;;;;;;1999.90;999.90;;;5.20;99.90;;;;;;5093392;28;20386;-64
2022/01/09 09:20:12;;;;;;;1999.90;999.90;;;5.30;99.90;;;;;;5093403;28;20123;-64
2022/01/09 09:22:38;;;;;;;1999.90;999.90;;;5.20;99.90;;;;;;5095129;28;20047;-63
2022/01/09 09:25:05;;;;;;;1999.90;999.90;;;5.30;99.90;;;;;;5093622;28;20047;-64
2022/01/09 09:27:32;;;;;;;1999.90;999.90;;;5.20;99.90;;;;;;5082175;28;20045;-64
2022/01/09 09:30:03;;;;;;;1999.90;999.90;;;5.20;99.90;;;;;;5074600;28;20068;-63
2022/01/09 09:32:30;;;;;;;1999.90;999.90;;;5.20;99.90;;;;;;5073794;28;20048;-63
2022/01/09 09:34:56;;;;;;;1999.90;999.90;;;5.20;99.90;;;;;;5088423;28;20524;-63
2022/01/09 09:37:22;;;;;;;1999.90;999.90;;;5.20;99.90;;;;;;5094641;28;20155;-64
2022/01/09 09:39:51;;;;;;;1999.90;999.90;;;5.30;99.90;;;;;;5093432;28;20036;-64
2022/01/09 09:42:17;;;;;;;1999.90;999.90;;;5.30;99.90;;;;;;5094900;28;20051;-64
2022/01/09 09:44:44;;;;;;;1999.90;999.90;;;5.30;99.90;;;;;;5092886;28;20098;-63
2022/01/09 09:47:10;;;;;;;1999.90;999.90;;;5.30;99.90;;;;;;5094116;28;20055;-63
2022/01/09 09:49:37;;;;;;;1999.90;999.90;;;5.30;99.90;;;;;;5094363;28;20070;-63
2022/01/09 09:52:06;;;;;;;1999.90;999.90;;;5.30;99.90;;;;;;5092870;28;20109;-63
2022/01/09 09:54:32;;;;;;;1999.90;999.90;;;5.30;99.90;;;;;;5082822;28;20032;-64
2022/01/09 09:56:58;;;;;;;1999.90;999.90;;;5.30;99.90;;;;;;5084101;28;20087;-63
2022/01/09 09:59:25;;;;;;;1999.90;999.90;;;5.40;99.90;;;;;;5093713;28;20454;-64
2022/01/09 10:01:51;;;;;;;1999.90;999.90;;;5.40;99.90;;;;;;5092260;28;20040;-64
2022/01/09 10:04:17;;;;;;;1999.90;999.90;;;5.50;99.90;;;;;;5093940;28;20499;-64
2022/01/09 10:06:46;;;;;;;1999.90;999.90;;;5.50;99.90;;;;;;5093357;28;20126;-64
2022/01/09 10:09:15;;;;;;;1999.90;999.90;;;5.50;99.90;;;;;;5093790;28;20585;-64
2022/01/09 10:11:42;;;;;;;1999.90;999.90;;;5.50;99.90;;;;;;5093003;28;20040;-65
2022/01/09 10:14:22;;;;;;;1999.90;999.90;;;5.50;99.90;;;;;;5093351;28;20091;-63
2022/01/09 10:17:07;;;;;;;1999.90;999.90;;;5.60;99.90;;;;;;5075946;28;20055;-64
2022/01/09 10:19:42;;;;;;;1999.90;999.90;;;5.60;99.90;;;;;;5089704;28;20047;-64
2022/01/09 10:22:21;;;;;;;1999.90;999.90;;;5.80;99.90;;;;;;5092777;28;20551;-64
2022/01/09 10:24:47;;;;;;;1999.90;999.90;;;5.80;99.90;;;;;;5093662;28;20044;-64
2022/01/09 10:27:26;;;;;;;1999.90;999.90;;;5.80;99.90;;;;;;5074929;28;20106;-63
2022/01/09 10:29:54;;;;;;;1999.90;999.90;;;5.90;99.90;;;;;;5083091;28;20304;-65
2022/01/09 10:32:23;;;;;;;1999.90;999.90;;;5.80;99.90;;;;;;5073046;28;20056;-64
2022/01/09 10:35:12;;;;;;;1999.90;999.90;;;5.90;99.90;;;;;;5072757;28;20411;-65
2022/01/09 10:37:39;;;;;;;1999.90;999.90;;;5.80;99.90;;;;;;5079821;28;20473;-64
2022/01/09 10:40:08;;;;;;;1999.90;999.90;;;5.80;99.90;;;;;;5093509;28;20048;-64
2022/01/09 10:42:35;;;;;;;1999.90;999.90;;;5.80;99.90;;;;;;5072430;28;20075;-64
2022/01/09 10:45:21;;;;;;;1999.90;999.90;;;5.80;99.90;;;;;;5073481;28;20072;-64
2022/01/09 10:47:48;;;;;;;1999.90;999.90;;;5.90;99.90;;;;;;5089631;28;20135;-63
2022/01/09 10:50:27;;;;;;;1999.90;999.90;;;6.00;99.90;;;;;;5093995;28;20131;-64
2022/01/09 10:53:10;;;;;;;1999.90;999.90;;;6.00;99.90;;;;;;5101519;28;20512;-63
2022/01/09 10:55:36;;;;;;;1999.90;999.90;;;6.00;99.90;;;;;;5095843;28;20645;-63
2022/01/09 10:58:18;;;;;;;1999.90;999.90;;;6.10;99.90;;;;;;5101059;28;20051;-64
2022/01/09 11:00:45;;;;;;;1999.90;999.90;;;6.20;99.90;;;;;;5092506;28;20044;-65
2022/01/09 11:03:11;;;;;;;1999.90;999.90;;;6.40;99.90;;;;;;5108190;28;20476;-64
2022/01/09 11:05:38;;;;;;;1999.90;999.90;;;6.50;99.90;;;;;;5092848;28;20091;-64
2022/01/09 11:08:04;;;;;;;1999.90;999.90;;;6.40;99.90;;;;;;5100577;28;20036;-65
2022/01/09 11:10:31;;;;;;;1999.90;999.90;;;6.50;99.90;;;;;;5100730;28;20438;-64
2022/01/09 11:12:59;;;;;;;1999.90;999.90;;;6.60;99.90;;;;;;5094465;28;20062;-64
2022/01/09 11:15:29;;;;;;;1999.90;999.90;;;6.70;99.90;;;;;;5092685;28;20083;-65
2022/01/09 11:18:01;;;;;;;1999.90;999.90;;;6.70;99.90;;;;;;5100478;28;20040;-64
2022/01/09 11:20:48;;;;;;;1999.90;999.90;;;6.60;99.90;;;;;;5099913;28;20446;-63
2022/01/09 11:23:15;;;;;;;1999.90;999.90;;;6.60;99.90;;;;;;5100845;28;20143;-63
2022/01/09 11:25:44;;;;;;;1999.90;999.90;;;6.50;99.90;;;;;;5109598;28;20048;-65
2022/01/09 11:28:28;;;;;;;1999.90;999.90;;;6.50;99.90;;;;;;5103283;28;20112;-63
2022/01/09 11:31:02;;;;;;;1999.90;999.90;;;6.40;99.90;;;;;;5102976;28;20109;-64
2022/01/09 11:33:52;;;;;;;1999.90;999.90;;;6.40;99.90;;;;;;5093074;28;20048;-64
2022/01/09 11:36:31;;;;;;;1999.90;999.90;;;6.40;99.90;;;;;;5092854;28;20090;-65
2022/01/09 11:39:15;;;;;;;1999.90;999.90;;;6.40;99.90;;;;;;5091330;28;20536;-65
2022/01/09 11:41:43;;;;;;;1999.90;999.90;;;6.50;99.90;;;;;;5092913;28;20063;-63
2022/01/09 11:44:11;;;;;;;1999.90;999.90;;;6.50;99.90;;;;;;5091542;28;20086;-63
2022/01/09 11:47:00;;;;;;;1999.90;999.90;;;6.50;99.90;;;;;;5092662;28;20466;-64
2022/01/09 11:49:27;;;;;;;1999.90;999.90;;;6.50;99.90;;;;;;5088154;28;20056;-64
2022/01/09 11:51:57;;;;;;;1999.90;999.90;;;6.60;99.90;;;;;;5073572;28;20482;-63
2022/01/09 11:54:23;;;;;;;1999.90;999.90;;;6.60;99.90;;;;;;5093006;28;20048;-64
2022/01/09 11:56:53;;;;;;;1999.90;999.90;;;6.60;99.90;;;;;;5092362;28;20083;-63
2022/01/09 11:59:23;;;;;;;1999.90;999.90;;;6.60;99.90;;;;;;5091564;28;20486;-64
2022/01/09 12:01:51;;;;;;;1999.90;999.90;;;6.60;99.90;;;;;;5092838;28;20044;-65
2022/01/09 12:04:32;;;;;;;1999.90;999.90;;;6.50;99.90;;;;;;5082736;28;20428;-65
2022/01/09 12:07:07;;;;;;;1999.90;999.90;;;6.60;99.90;;;;;;5091637;28;20105;-63
2022/01/09 12:09:41;;;;;;;1999.90;999.90;;;6.60;99.90;;;;;;5092390;28;20044;-64
2022/01/09 12:12:08;;;;;;;1999.90;999.90;;;6.60;99.90;;;;;;5092453;28;20402;-64
2022/01/09 12:14:55;;;;;;;1999.90;999.90;;;6.60;99.90;;;;;;5091856;28;20383;-64